Etusivu
METAR-TAF:

METAR-TAF

Lentoasemat :

Hannoverin lentoasema

Hannover, Saksa

Leveyspiiri: 52-28N, Pituuspiiri: 009-41E, korkeus merenpinnasta: 56 m

Tämänhetkinen sää

Tämä raportti tehtiin 17 minuuttia sitten, kello 15.20 UTC
Tuuli 8 kn idästä
Lämpötila 19°C
Kosteus 73%
Ilmanpaine 1011 hPa
Näkyvyys 10 km tai enemmän
ei pilviä alle 1500 m:ssä eikä cumulonimbus-pilviä

METAR: EDDV 141520Z 08008KT CAVOK 19/14 Q1011 NOSIG

Aika: 17:37 (15:37 UTC)

Sääennuste

Tämä raportti tehtiin 4 tuntia ja 37 minuuttia sitten, kello 11.00 UTC
Ennuste voimassa 14. päivästä klo 12 UTC - 15. päivään klo 12 UTC
Tuuli 2 kn eri suunnista
Näkyvyys 10 km tai enemmän
Muutamia pilviä 2000 ft:n korkeudessa
Tulossa
14. päivästä klo 12 UTC - 14. päivään klo 14 UTC
Tuuli 7 kn idästä
Tulossa
14. päivästä klo 16 UTC - 14. päivään klo 18 UTC
Tuuli 5 kn etelästä/kaakosta

TAF: EDDV 141100Z 1412/1512 VRB02KT 9999 FEW020 BECMG 1412/1414 09007KT BECMG 1416/1418 16005KT

Säähavainnot ja -ennusteet yli 4000 lentoasemalta (METAR- ja TAF-raportit).

Käytössä olevat sääasemat on merkitty karttaan keltaisilla ja punaisilla pisteillä.

Aseta hiiri pisteen päälle nähdäksesi sääaseman nimen.

Klikkaa sitten nähdäksesi säähavainnot ja -ennusteet.

Kartan vaihtaminen: klikkaa mustalla rastilla varustettuja vihreitä pisteitä, niin voit zoomata sisään; viivalla varustettua vihreää pistettä, niin voit zoomata ulos tai vihreitä nuolia, niin pääset viereisille kartoille.


METAR-TAF: